Главная страница
METAR-TAF:

METAR-TAF

Аэропорты :

Франклин округ, Вермонт, США

широта: 44-56-25N, долгота: 073-05-51W, высота над уровнем моря: 69 м

Текущие метеонаблюдения

Эта сводка был подготовлена 21 минут назад, в 16:35 UTC
Штиль
Температура -13°C
Влажность 72%
Давление 1030 hPa
Видимость: 16.1 км
ясное небо

METAR: KFSO 181635Z AUTO 00000KT 10SM CLR M13/M17 A3042 RMK AO2 T11271167

Время: 11:56 (16:56 UTC)


TAF: отсутствует

Метеонаблюдения и прогнозы для более 4000 аэропортов (сводки METAR и TAF).

Имеющиеся станции представлены на карте желтыми и красными точками.

Чтобы увидеть название станции, наведите на нее мышь.

Затем щелкните, чтобы увидеть метеонаблюдения и метеопрогнозы.

Управление картой: чтобы увеличить масштаб, щелкните зеленые кнопки с черным крестиком; чтобы уменьшить масштаб, щелкните зеленую кнопку с тире; для просмотра соседних карт щелкайте зеленые стрелки.


METAR-TAF: